createdAt,value
2018-04-10T00:00:28.557Z,2.00
2018-04-10T00:02:57.458Z,2.08
2018-04-10T00:05:26.347Z,1.45
2018-04-10T00:07:55.510Z,1.40
2018-04-10T00:10:24.537Z,0.90
2018-04-10T00:12:53.420Z,1.40
2018-04-10T00:15:22.380Z,0.88
2018-04-10T00:17:51.266Z,1.70
2018-04-10T00:20:20.154Z,0.88
2018-04-10T00:22:49.038Z,1.87
2018-04-10T00:25:17.926Z,1.90
2018-04-10T00:27:46.866Z,1.27
2018-04-10T00:30:15.750Z,1.25
2018-04-10T00:32:44.634Z,1.42
2018-04-10T00:35:13.517Z,2.22
2018-04-10T00:37:42.398Z,0.80
2018-04-10T00:40:11.650Z,1.00
2018-04-10T00:42:40.546Z,1.00
2018-04-10T00:45:09.430Z,1.40
2018-04-10T00:47:38.534Z,1.12
2018-04-10T00:50:07.418Z,1.40
2018-04-10T00:52:36.302Z,1.05
2018-04-10T00:55:05.401Z,0.90
2018-04-10T00:57:34.318Z,1.10
2018-04-10T01:00:03.205Z,3.03
2018-04-10T01:02:32.090Z,1.10
2018-04-10T01:05:00.979Z,0.90
2018-04-10T01:07:30.086Z,0.90
2018-04-10T01:09:58.977Z,1.02
2018-04-10T01:12:27.861Z,1.35
2018-04-10T01:14:56.742Z,1.80
2018-04-10T01:17:25.626Z,1.55
2018-04-10T01:19:54.930Z,1.50
2018-04-10T01:22:23.819Z,0.90
2018-04-10T01:24:52.713Z,1.40
2018-04-10T01:27:21.602Z,1.00
2018-04-10T01:29:50.497Z,1.08
2018-04-10T01:32:19.444Z,0.85
2018-04-10T01:34:48.326Z,2.10
2018-04-10T01:37:17.205Z,0.70
2018-04-10T01:39:46.090Z,2.10
2018-04-10T01:42:14.974Z,1.10
2018-04-10T01:44:43.901Z,4.50
2018-04-10T01:47:12.795Z,1.60
2018-04-10T01:49:41.682Z,1.48
2018-04-10T01:52:10.618Z,2.17
2018-04-10T01:54:39.503Z,9.20
2018-04-10T01:57:08.394Z,12.30
2018-04-10T01:59:37.274Z,2.70
2018-04-10T02:02:06.269Z,4.70
2018-04-10T02:04:35.177Z,1.40
2018-04-10T02:07:04.062Z,2.47
2018-04-10T02:09:46.334Z,1.75
2018-04-10T02:12:15.218Z,2.15
2018-04-10T02:14:44.098Z,1.10
2018-04-10T02:17:12.978Z,2.00
2018-04-10T02:19:41.866Z,1.33
2018-04-10T02:22:10.928Z,1.40
2018-04-10T02:24:39.815Z,1.23
2018-04-10T02:27:08.697Z,1.55
2018-04-10T02:29:37.590Z,1.40
2018-04-10T02:32:06.482Z,1.08
2018-04-10T02:34:35.590Z,1.80
2018-04-10T02:37:04.475Z,1.95
2018-04-10T02:39:33.359Z,2.10
2018-04-10T02:42:02.454Z,6.05
2018-04-10T02:44:31.346Z,2.60
2018-04-10T02:47:00.447Z,2.50
2018-04-10T02:49:29.327Z,1.75
2018-04-10T02:51:58.213Z,1.05
2018-04-10T02:54:27.110Z,1.12
2018-04-10T02:56:55.995Z,0.90
2018-04-10T02:59:25.093Z,1.90
2018-04-10T03:01:53.986Z,0.98
2018-04-10T03:04:22.866Z,1.30
2018-04-10T03:06:51.814Z,2.83
2018-04-10T03:09:20.694Z,1.50
2018-04-10T03:11:49.581Z,3.28
2018-04-10T03:14:18.646Z,5.53
2018-04-10T03:16:47.541Z,7.05
2018-04-10T03:19:16.614Z,8.48
2018-04-10T03:21:45.494Z,2.95
2018-04-10T03:24:14.378Z,1.75
2018-04-10T03:26:43.506Z,2.28
2018-04-10T03:29:12.391Z,3.03
2018-04-10T03:31:41.274Z,6.68
2018-04-10T03:34:10.161Z,2.30
2018-04-10T03:36:39.118Z,5.93
2018-04-10T03:39:08.182Z,2.00
2018-04-10T03:41:37.079Z,1.85
2018-04-10T03:44:05.967Z,1.77
2018-04-10T03:46:35.038Z,0.95
2018-04-10T03:49:04.134Z,1.05
2018-04-10T03:51:33.019Z,1.20
2018-04-10T03:54:02.054Z,1.23
2018-04-10T03:56:31.016Z,1.20
2018-04-10T03:58:59.906Z,1.00
2018-04-10T04:01:28.792Z,1.20
2018-04-10T04:03:57.698Z,1.85
2018-04-10T04:06:26.849Z,1.30
2018-04-10T04:08:55.781Z,1.90
2018-04-10T04:11:24.646Z,2.20
2018-04-10T04:13:53.554Z,1.65
2018-04-10T04:16:28.352Z,0.80
2018-04-10T04:19:03.077Z,1.25
2018-04-10T04:21:38.155Z,1.50
2018-04-10T04:24:07.054Z,1.67
2018-04-10T04:26:35.934Z,1.10
2018-04-10T04:29:04.818Z,1.40
2018-04-10T04:31:33.698Z,0.95
2018-04-10T04:34:02.606Z,2.15
2018-04-10T04:36:31.494Z,1.05
2018-04-10T04:39:00.378Z,0.80
2018-04-10T04:41:29.290Z,1.50
2018-04-10T04:43:58.209Z,2.55
2018-04-10T04:46:27.090Z,3.45
2018-04-10T04:48:56.184Z,2.20
2018-04-10T04:51:25.071Z,2.10
2018-04-10T04:53:53.962Z,3.30
2018-04-10T04:56:22.870Z,1.77
2018-04-10T04:58:51.770Z,2.33
2018-04-10T05:01:20.655Z,2.30
2018-04-10T05:03:49.542Z,6.62
2018-04-10T05:06:18.432Z,2.70
2018-04-10T05:08:47.520Z,5.00
2018-04-10T05:11:16.411Z,2.55
2018-04-10T05:13:45.298Z,3.00
2018-04-10T05:16:14.669Z,3.72
2018-04-10T05:18:43.589Z,6.05
2018-04-10T05:21:12.541Z,5.85
2018-04-10T05:23:41.430Z,4.78
2018-04-10T05:26:10.314Z,2.20
2018-04-10T05:28:39.199Z,2.45
2018-04-10T05:31:08.098Z,1.08
2018-04-10T05:33:37.372Z,3.70
2018-04-10T05:36:06.267Z,1.75
2018-04-10T05:38:35.150Z,2.80
2018-04-10T05:41:04.058Z,1.10
2018-04-10T05:43:32.942Z,1.48
2018-04-10T05:46:02.270Z,1.30
2018-04-10T05:48:31.162Z,1.50
2018-04-10T05:51:00.042Z,1.90
2018-04-10T05:53:28.930Z,2.30
2018-04-10T05:55:57.842Z,4.28
2018-04-10T05:58:26.788Z,2.65
2018-04-10T06:00:55.687Z,1.92
2018-04-10T06:03:24.575Z,4.10
2018-04-10T06:05:53.460Z,2.05
2018-04-10T06:08:22.346Z,1.25
2018-04-10T06:10:51.591Z,1.00
2018-04-10T06:13:20.478Z,1.20
2018-04-10T06:15:49.371Z,1.10
2018-04-10T06:18:18.271Z,0.90
2018-04-10T06:20:47.158Z,0.90
2018-04-10T06:23:16.081Z,1.20
2018-04-10T06:25:44.966Z,2.00
2018-04-10T06:28:13.862Z,26.40
2018-04-10T06:30:42.746Z,7.18
2018-04-10T06:33:11.642Z,10.63
2018-04-10T06:35:40.590Z,4.90
2018-04-10T06:38:09.474Z,4.65
2018-04-10T06:40:38.358Z,5.80
2018-04-10T06:43:07.238Z,2.60
2018-04-10T06:45:36.130Z,2.60
2018-04-10T06:48:05.082Z,2.15
2018-04-10T06:50:33.974Z,1.83
2018-04-10T06:53:02.930Z,1.15
2018-04-10T06:55:31.836Z,1.70
2018-04-10T06:58:00.718Z,1.00
2018-04-10T07:00:29.882Z,1.12
2018-04-10T07:02:58.768Z,1.00
2018-04-10T07:05:27.662Z,1.00
2018-04-10T07:07:56.592Z,2.15
2018-04-10T07:10:25.458Z,1.23
2018-04-10T07:12:54.378Z,1.27
2018-04-10T07:15:23.259Z,1.20
2018-04-10T07:17:52.142Z,1.98
2018-04-10T07:20:21.029Z,3.28
2018-04-10T07:22:49.911Z,1.05
2018-04-10T07:25:18.817Z,1.10
2018-04-10T07:27:47.745Z,1.48
2018-04-10T07:30:16.618Z,2.45
2018-04-10T07:32:45.558Z,3.60
2018-04-10T07:35:14.445Z,1.15
2018-04-10T07:37:43.327Z,2.40
2018-04-10T07:40:12.229Z,2.35
2018-04-10T07:42:41.174Z,1.58
2018-04-10T07:45:10.071Z,1.40
2018-04-10T07:47:39.148Z,1.20
2018-04-10T07:50:08.031Z,1.25
2018-04-10T07:52:36.914Z,0.60
2018-04-10T07:55:05.799Z,1.00
2018-04-10T07:57:34.687Z,0.80
2018-04-10T08:00:03.810Z,1.35
2018-04-10T08:02:32.694Z,0.90
2018-04-10T08:05:01.602Z,1.00
2018-04-10T08:07:30.494Z,4.20
2018-04-10T08:09:59.388Z,6.55
2018-04-10T08:12:28.458Z,7.95
2018-04-10T08:14:57.371Z,1.83
2018-04-10T08:17:26.270Z,3.85
2018-04-10T08:19:55.173Z,5.55
2018-04-10T08:22:24.064Z,4.55
2018-04-10T08:24:53.190Z,1.85
2018-04-10T08:27:22.088Z,3.03
2018-04-10T08:29:50.974Z,1.30
2018-04-10T08:32:19.858Z,1.70
2018-04-10T08:34:48.745Z,0.73
2018-04-10T08:37:17.974Z,1.08
2018-04-10T08:39:46.878Z,1.73
2018-04-10T08:42:15.774Z,1.87
2018-04-10T08:44:44.663Z,1.08
2018-04-10T08:47:13.587Z,0.90
2018-04-10T08:49:42.471Z,1.10
2018-04-10T08:52:11.359Z,0.98
2018-04-10T08:54:40.243Z,1.05
2018-04-10T08:57:09.142Z,1.20
2018-04-10T08:59:38.062Z,0.88
2018-04-10T09:02:07.089Z,3.00
2018-04-10T09:04:35.994Z,1.30
2018-04-10T09:07:04.882Z,0.70
2018-04-10T09:09:33.784Z,1.00
2018-04-10T09:12:02.863Z,0.70
2018-04-10T09:14:31.748Z,0.95
2018-04-10T09:17:00.639Z,1.30
2018-04-10T09:19:29.586Z,0.88
2018-04-10T09:21:58.475Z,1.65
2018-04-10T09:24:27.421Z,0.90
2018-04-10T09:26:56.312Z,1.25
2018-04-10T09:29:25.219Z,1.08
2018-04-10T09:31:54.190Z,0.90
2018-04-10T09:34:23.086Z,0.75
2018-04-10T09:36:52.375Z,1.05
2018-04-10T09:39:21.271Z,0.80
2018-04-10T09:41:50.159Z,1.20
2018-04-10T09:44:19.060Z,1.05
2018-04-10T09:46:47.954Z,1.85
2018-04-10T09:49:17.257Z,2.72
2018-04-10T09:51:46.145Z,5.68
2018-04-10T09:54:15.038Z,13.62
2018-04-10T09:56:43.926Z,12.32
2018-04-10T09:59:12.810Z,4.07
2018-04-10T10:01:41.902Z,0.98
2018-04-10T10:04:10.816Z,1.10
2018-04-10T10:06:39.714Z,2.12
2018-04-10T10:09:08.599Z,1.80
2018-04-10T10:11:37.499Z,0.95
2018-04-10T10:14:06.766Z,1.27
2018-04-10T10:16:35.654Z,0.80
2018-04-10T10:19:04.553Z,0.90
2018-04-10T10:21:33.441Z,0.90
2018-04-10T10:24:02.326Z,1.50
2018-04-10T10:26:31.265Z,1.25
2018-04-10T10:29:00.152Z,1.00
2018-04-10T10:31:29.043Z,0.93
2018-04-10T10:33:58.294Z,1.00
2018-04-10T10:36:27.306Z,0.75
2018-04-10T10:38:56.210Z,1.10
2018-04-10T10:41:25.375Z,1.00
2018-04-10T10:43:54.278Z,1.10
2018-04-10T10:46:23.162Z,1.10
2018-04-10T10:48:52.054Z,0.60
2018-04-10T10:51:20.946Z,0.90
2018-04-10T10:53:50.050Z,0.77
2018-04-10T10:56:18.934Z,0.90
2018-04-10T10:58:47.820Z,0.90
2018-04-10T11:01:16.714Z,0.80
2018-04-10T11:03:45.610Z,1.17
2018-04-10T11:06:14.708Z,0.90
2018-04-10T11:08:43.590Z,0.95
2018-04-10T11:11:12.474Z,1.12
2018-04-10T11:13:41.574Z,0.98
2018-04-10T11:16:10.458Z,0.60
2018-04-10T11:18:39.346Z,1.40
2018-04-10T11:21:08.230Z,1.15
2018-04-10T11:23:37.114Z,0.70
2018-04-10T11:26:06.042Z,0.70
2018-04-10T11:28:34.932Z,0.82
2018-04-10T11:31:03.815Z,0.82
2018-04-10T11:33:32.922Z,2.70
2018-04-10T11:36:01.810Z,2.25
2018-04-10T11:38:30.706Z,3.10
2018-04-10T11:40:59.986Z,5.40
2018-04-10T11:43:29.810Z,0.90
2018-04-10T11:45:58.698Z,1.27
2018-04-10T11:48:27.591Z,3.90
2018-04-10T11:50:56.483Z,1.20
2018-04-10T11:53:25.670Z,1.20
2018-04-10T11:55:54.572Z,0.70
2018-04-10T11:58:23.459Z,1.15
2018-04-10T12:00:52.547Z,21.95
2018-04-10T12:03:21.439Z,2.33
2018-04-10T12:05:50.334Z,2.17
2018-04-10T12:08:19.422Z,1.45
2018-04-10T12:10:48.319Z,0.90
2018-04-10T12:13:17.206Z,0.70
2018-04-10T12:15:46.302Z,0.70
2018-04-10T12:18:15.189Z,0.90
2018-04-10T12:20:44.083Z,1.02
2018-04-10T12:23:12.978Z,1.17
2018-04-10T12:25:41.866Z,0.77
2018-04-10T12:28:10.954Z,1.20
2018-04-10T12:30:39.886Z,0.88
2018-04-10T12:33:08.753Z,0.93
2018-04-10T12:35:37.638Z,1.10
2018-04-10T12:38:06.551Z,0.95
2018-04-10T12:40:35.818Z,1.00
2018-04-10T12:43:04.720Z,0.93
2018-04-10T12:45:33.782Z,0.82
2018-04-10T12:48:02.662Z,0.80
2018-04-10T12:50:31.549Z,0.80
2018-04-10T12:53:00.682Z,0.93
2018-04-10T12:55:29.570Z,0.70
2018-04-10T12:57:58.465Z,0.80
2018-04-10T13:00:27.558Z,0.80
2018-04-10T13:02:56.457Z,0.80
2018-04-10T13:05:25.366Z,0.85
2018-04-10T13:07:54.262Z,0.80
2018-04-10T13:10:23.171Z,2.12
2018-04-10T13:12:52.261Z,3.12
2018-04-10T13:15:21.142Z,1.08
2018-04-10T13:17:50.041Z,0.80
2018-04-10T13:20:18.927Z,0.90
2018-04-10T13:22:47.815Z,1.40
2018-04-10T13:25:16.758Z,0.80
2018-04-10T13:27:45.642Z,0.93
2018-04-10T13:30:14.526Z,1.10
2018-04-10T13:32:43.410Z,0.80
2018-04-10T13:35:12.295Z,0.70
2018-04-10T13:37:41.532Z,0.62
2018-04-10T13:40:10.446Z,0.90
2018-04-10T13:42:39.337Z,0.88
2018-04-10T13:45:08.222Z,1.00
2018-04-10T13:47:37.110Z,2.28
2018-04-10T13:50:06.194Z,2.50
2018-04-10T13:52:35.090Z,1.67
2018-04-10T13:55:03.977Z,2.62
2018-04-10T13:57:32.871Z,3.30
2018-04-10T14:00:01.754Z,3.50
2018-04-10T14:02:30.690Z,0.80
2018-04-10T14:04:59.583Z,7.85
2018-04-10T14:07:28.474Z,1.42
2018-04-10T14:09:57.589Z,3.20
2018-04-10T14:12:26.506Z,1.70
2018-04-10T14:14:55.517Z,3.05
2018-04-10T14:17:24.426Z,0.90
2018-04-10T14:19:53.307Z,0.95
2018-04-10T14:22:22.190Z,1.27
2018-04-10T14:24:51.074Z,1.05
2018-04-10T14:27:19.962Z,2.10
2018-04-10T14:29:49.266Z,1.35
2018-04-10T14:32:18.159Z,0.82
2018-04-10T14:34:47.046Z,1.23
2018-04-10T14:37:16.087Z,1.15
2018-04-10T14:39:44.970Z,0.95
2018-04-10T14:42:13.863Z,1.25
2018-04-10T14:44:42.802Z,1.00
2018-04-10T14:47:11.686Z,1.12
2018-04-10T14:49:40.590Z,0.95
2018-04-10T14:52:09.478Z,1.00
2018-04-10T14:54:38.361Z,1.00
2018-04-10T14:57:07.471Z,0.70
2018-04-10T14:59:36.431Z,0.90
2018-04-10T15:02:05.320Z,0.98
2018-04-10T15:04:34.202Z,0.95
2018-04-10T15:07:03.089Z,0.70
2018-04-10T15:09:32.286Z,1.90
2018-04-10T15:12:01.406Z,1.27
2018-04-10T15:14:30.290Z,0.95
2018-04-10T15:16:59.261Z,0.80
2018-04-10T15:19:28.147Z,1.12
2018-04-10T15:21:57.198Z,1.08
2018-04-10T15:24:26.090Z,1.48
2018-04-10T15:26:54.978Z,1.00
2018-04-10T15:29:24.277Z,0.98
2018-04-10T15:31:53.163Z,1.10
2018-04-10T15:34:22.066Z,1.30
2018-04-10T15:36:51.170Z,1.17
2018-04-10T15:39:20.058Z,0.95
2018-04-10T15:41:48.947Z,1.58
2018-04-10T15:44:17.834Z,1.15
2018-04-10T15:46:46.742Z,1.20
2018-04-10T15:49:15.690Z,1.08
2018-04-10T15:51:44.570Z,0.90
2018-04-10T15:54:13.491Z,1.37
2018-04-10T15:56:42.456Z,1.15
2018-04-10T15:59:11.374Z,2.33
2018-04-10T16:01:40.278Z,1.40
2018-04-10T16:04:09.203Z,1.75
2018-04-10T16:06:38.090Z,3.22
2018-04-10T16:09:07.027Z,2.10
2018-04-10T16:11:35.906Z,1.30
2018-04-10T16:14:04.791Z,2.05
2018-04-10T16:16:34.018Z,1.98
2018-04-10T16:19:02.906Z,1.70
2018-04-10T16:21:31.790Z,0.82
2018-04-10T16:24:00.734Z,1.10
2018-04-10T16:26:29.619Z,1.50
2018-04-10T16:28:58.502Z,1.65
2018-04-10T16:31:27.402Z,1.10
2018-04-10T16:33:56.305Z,3.55
2018-04-10T16:36:25.559Z,2.37
2018-04-10T16:38:54.447Z,2.53
2018-04-10T16:41:23.331Z,1.90
2018-04-10T16:46:21.870Z,3.40
2018-04-10T16:48:51.150Z,5.72
2018-04-10T16:51:20.042Z,12.37
2018-04-10T16:53:48.938Z,12.37
2018-04-10T16:56:17.843Z,8.43
2018-04-10T16:58:46.738Z,22.87
2018-04-10T17:01:15.802Z,45.95
2018-04-10T17:03:44.694Z,16.00
2018-04-10T17:06:13.595Z,19.98
2018-04-10T17:08:42.499Z,22.30
2018-04-10T17:11:11.396Z,13.95
2018-04-10T17:13:40.330Z,3.28
2018-04-10T17:16:09.218Z,4.15
2018-04-10T17:18:38.111Z,2.17
2018-04-10T17:21:07.003Z,1.30
2018-04-10T17:23:35.890Z,1.50
2018-04-10T17:26:04.978Z,1.40
2018-04-10T17:28:33.865Z,1.20
2018-04-10T17:31:02.778Z,1.20
2018-04-10T17:33:31.775Z,2.05
2018-04-10T17:36:00.642Z,1.17
2018-04-10T17:38:29.564Z,1.12
2018-04-10T17:40:58.454Z,1.30
2018-04-10T17:43:27.342Z,1.08
2018-04-10T17:45:56.658Z,0.80
2018-04-10T17:48:25.542Z,1.65
2018-04-10T17:50:54.426Z,0.98
2018-04-10T17:53:23.315Z,0.90
2018-04-10T17:55:52.214Z,2.10
2018-04-10T17:58:21.302Z,1.73
2018-04-10T18:00:50.192Z,0.80
2018-04-10T18:03:19.078Z,1.50
2018-04-10T18:05:48.181Z,1.05
2018-04-10T18:08:17.070Z,1.60
2018-04-10T18:10:45.958Z,1.55
2018-04-10T18:13:14.894Z,1.30
2018-04-10T18:15:43.970Z,1.10
2018-04-10T18:18:12.862Z,1.33
2018-04-10T18:20:41.746Z,1.10
2018-04-10T18:23:10.826Z,1.23
2018-04-10T18:25:39.717Z,1.10
2018-04-10T18:28:08.850Z,1.00
2018-04-10T18:30:37.738Z,0.70
2018-04-10T18:33:06.618Z,1.25
2018-04-10T18:35:35.686Z,1.00
2018-04-10T18:38:04.574Z,1.30
2018-04-10T18:40:33.482Z,1.25
2018-04-10T18:43:02.570Z,1.20
2018-04-10T18:45:31.462Z,1.85
2018-04-10T18:48:00.357Z,1.35
2018-04-10T18:50:29.261Z,0.95
2018-04-10T18:52:58.147Z,1.10
2018-04-10T18:55:27.234Z,1.87
2018-04-10T18:57:56.167Z,1.70
2018-04-10T19:00:25.050Z,0.90
2018-04-10T19:02:53.942Z,1.08
2018-04-10T19:05:22.830Z,1.15
2018-04-10T19:07:51.717Z,1.80
2018-04-10T19:10:20.759Z,1.25
2018-04-10T19:12:49.645Z,1.25
2018-04-10T19:17:59.131Z,1.20
2018-04-10T19:20:28.871Z,1.20
2018-04-10T19:22:57.795Z,1.12
2018-04-10T19:25:26.682Z,0.93
2018-04-10T19:27:55.570Z,1.05
2018-04-10T19:30:24.702Z,0.70
2018-04-10T19:32:53.587Z,1.20
2018-04-10T19:35:22.471Z,1.00
2018-04-10T19:37:51.354Z,1.30
2018-04-10T19:40:20.239Z,1.02
2018-04-10T19:42:49.361Z,1.40
2018-04-10T19:45:18.246Z,1.40
2018-04-10T19:47:47.126Z,1.50
2018-04-10T19:50:16.011Z,0.80
2018-04-10T19:52:44.922Z,1.60
2018-04-10T19:55:13.854Z,1.10
2018-04-10T19:57:42.746Z,1.33
2018-04-10T20:00:11.642Z,1.62
2018-04-10T20:02:40.563Z,1.12
2018-04-10T20:05:09.479Z,1.40
2018-04-10T20:07:38.891Z,1.77
2018-04-10T20:10:07.778Z,1.33
2018-04-10T20:12:36.665Z,1.87
2018-04-10T20:15:05.575Z,1.70
2018-04-10T20:17:34.470Z,2.80
2018-04-10T20:20:03.358Z,1.83
2018-04-10T20:22:32.246Z,1.90
2018-04-10T20:25:01.130Z,2.15
2018-04-10T20:27:30.215Z,2.17
2018-04-10T20:29:59.114Z,2.10
2018-04-10T20:32:27.998Z,1.77
2018-04-10T20:34:56.886Z,1.50
2018-04-10T20:37:25.779Z,0.90
2018-04-10T20:39:54.870Z,1.08
2018-04-10T20:42:23.763Z,1.80
2018-04-10T20:44:52.658Z,1.30
2018-04-10T20:47:21.594Z,1.80
2018-04-10T20:49:50.478Z,2.90
2018-04-10T20:52:19.367Z,3.75
2018-04-10T20:54:48.488Z,3.37
2018-04-10T20:57:17.377Z,3.65
2018-04-10T20:59:46.267Z,1.30
2018-04-10T21:02:15.365Z,2.67
2018-04-10T21:04:44.374Z,1.60
2018-04-10T21:07:13.486Z,1.05
2018-04-10T21:09:42.390Z,1.95
2018-04-10T21:12:11.270Z,1.87
2018-04-10T21:14:40.154Z,1.80
2018-04-10T21:17:09.234Z,1.67
2018-04-10T21:19:38.350Z,1.35
2018-04-10T21:22:07.234Z,1.50
2018-04-10T21:24:36.124Z,1.85
2018-04-10T21:27:05.062Z,1.15
2018-04-10T21:29:34.074Z,1.30
2018-04-10T21:32:03.419Z,1.05
2018-04-10T21:34:32.306Z,1.00
2018-04-10T21:37:01.199Z,1.25
2018-04-10T21:39:30.087Z,1.65
2018-04-10T21:41:58.978Z,1.10
2018-04-10T21:44:28.006Z,0.60
2018-04-10T21:46:56.907Z,1.45
2018-04-10T21:49:25.795Z,1.48
2018-04-10T21:51:54.690Z,1.35
2018-04-10T21:54:23.574Z,2.33
2018-04-10T21:56:52.615Z,1.37
2018-04-10T21:59:21.499Z,1.30
2018-04-10T22:01:50.382Z,1.83
2018-04-10T22:04:19.279Z,1.27
2018-04-10T22:06:48.162Z,1.42
2018-04-10T22:09:17.239Z,2.80
2018-04-10T22:11:46.126Z,1.77
2018-04-10T22:14:15.010Z,1.83
2018-04-10T22:16:43.894Z,2.85
2018-04-10T22:19:12.792Z,1.05
2018-04-10T22:21:41.707Z,0.70
2018-04-10T22:24:10.596Z,0.90
2018-04-10T22:26:39.490Z,1.50
2018-04-10T22:29:08.472Z,1.15
2018-04-10T22:31:37.342Z,1.00
2018-04-10T22:34:06.206Z,1.45
2018-04-10T22:36:35.091Z,2.03
2018-04-10T22:39:03.979Z,1.33
2018-04-10T22:41:32.941Z,1.17
2018-04-10T22:44:01.876Z,1.17
2018-04-10T22:46:30.768Z,0.95
2018-04-10T22:48:59.655Z,1.23
2018-04-10T22:51:28.587Z,1.58
2018-04-10T22:53:57.472Z,1.23
2018-04-10T22:56:26.369Z,1.33
2018-04-10T22:58:55.255Z,1.25
2018-04-10T23:01:24.145Z,1.02
2018-04-10T23:03:53.375Z,0.80
2018-04-10T23:06:22.266Z,1.20
2018-04-10T23:08:51.181Z,1.95
2018-04-10T23:11:20.079Z,1.30
2018-04-10T23:13:48.973Z,1.58
2018-04-10T23:16:17.991Z,1.10
2018-04-10T23:18:47.008Z,1.62
2018-04-10T23:21:15.899Z,1.98
2018-04-10T23:23:44.928Z,1.02
2018-04-10T23:26:13.817Z,1.10
2018-04-10T23:28:42.713Z,2.05
2018-04-10T23:31:11.675Z,1.98
2018-04-10T23:33:40.564Z,1.40
2018-04-10T23:36:09.484Z,1.40
2018-04-10T23:38:38.371Z,1.75
2018-04-10T23:41:07.258Z,1.30
2018-04-10T23:43:36.143Z,1.00
2018-04-10T23:46:05.031Z,1.87
2018-04-10T23:48:33.947Z,1.12
2018-04-10T23:51:02.835Z,3.33
2018-04-10T23:53:31.723Z,3.25
2018-04-10T23:56:00.605Z,3.40
2018-04-10T23:58:29.495Z,1.30
